Time;durP1;ratioP1;P1;durP2;ratioP2;P2;SDS_P1;SDS_P2;PMS_P1;PMS_P2;Temp;Humidity;BMP_temperature;BMP_pressure;BME280_temperature;BME280_humidity;BME280_pressure;Samples;Min_cycle;Max_cycle;Signal;HPM_P1;HPM_P2
2023/04/27 00:01:11;;;;;;;18.13;9.17;;;1.60;99.90;;;;;;5076034;28;20052;-23
2023/04/27 00:03:37;;;;;;;17.57;9.17;;;1.70;99.90;;;;;;5093408;28;20421;-22
2023/04/27 00:06:03;;;;;;;16.37;9.17;;;1.90;99.90;;;;;;5093499;28;20516;-22
2023/04/27 00:08:29;;;;;;;15.90;9.50;;;1.80;99.90;;;;;;5092630;28;20052;-22
2023/04/27 00:10:56;;;;;;;15.23;8.70;;;1.80;99.90;;;;;;5094117;28;20466;-22
2023/04/27 00:13:21;;;;;;;16.10;8.60;;;1.80;99.90;;;;;;5094537;28;20055;-23
2023/04/27 00:15:47;;;;;;;16.37;8.30;;;1.90;99.90;;;;;;5092623;28;20482;-22
2023/04/27 00:18:13;;;;;;;14.03;7.97;;;1.80;99.90;;;;;;5093725;28;20083;-23
2023/04/27 00:20:39;;;;;;;12.57;7.37;;;1.90;99.90;;;;;;5093994;28;20142;-23
2023/04/27 00:23:05;;;;;;;13.10;8.10;;;1.90;99.90;;;;;;5093405;28;20453;-23
2023/04/27 00:25:31;;;;;;;19.93;8.83;;;1.90;99.90;;;;;;5093630;28;20087;-23
2023/04/27 00:27:57;;;;;;;12.80;7.43;;;1.90;99.90;;;;;;5092376;28;20068;-23
2023/04/27 00:30:22;;;;;;;14.63;7.40;;;2.00;99.90;;;;;;5093536;28;20040;-22
2023/04/27 00:32:48;;;;;;;14.93;7.93;;;2.00;99.90;;;;;;5096984;28;20052;-23
2023/04/27 00:35:14;;;;;;;11.77;7.57;;;2.00;99.90;;;;;;5098445;28;20048;-22
2023/04/27 00:37:40;;;;;;;13.60;7.73;;;1.90;99.90;;;;;;5096413;28;20054;-22
2023/04/27 00:40:06;;;;;;;10.90;7.60;;;1.80;99.90;;;;;;5097835;28;20379;-23
2023/04/27 00:42:33;;;;;;;12.50;7.63;;;1.70;99.90;;;;;;5097349;28;20047;-23
2023/04/27 00:44:59;;;;;;;13.10;7.00;;;1.70;99.90;;;;;;5096176;28;20088;-23
2023/04/27 00:47:25;;;;;;;11.47;8.10;;;1.60;99.90;;;;;;5097391;28;20087;-23
2023/04/27 00:49:51;;;;;;;12.23;7.37;;;1.50;99.90;;;;;;5097281;28;20074;-22
2023/04/27 00:52:17;;;;;;;12.20;7.17;;;1.40;99.90;;;;;;5097342;28;20065;-23
2023/04/27 00:54:44;;;;;;;11.50;6.47;;;1.20;99.90;;;;;;5097290;28;20047;-22
2023/04/27 00:57:10;;;;;;;10.80;7.33;;;1.20;99.90;;;;;;5097255;28;20108;-22
2023/04/27 00:59:35;;;;;;;12.80;6.90;;;1.10;99.90;;;;;;5097213;28;20394;-23
2023/04/27 01:02:01;;;;;;;10.57;6.27;;;1.10;99.90;;;;;;5097665;28;20066;-22
2023/04/27 01:04:28;;;;;;;8.80;6.53;;;1.10;99.90;;;;;;5097134;28;20115;-23
2023/04/27 01:06:54;;;;;;;14.40;6.57;;;1.00;99.90;;;;;;5096367;28;20047;-23
2023/04/27 01:09:20;;;;;;;12.03;6.67;;;1.10;99.90;;;;;;5095527;28;20052;-23
2023/04/27 01:11:46;;;;;;;10.40;7.43;;;0.80;99.90;;;;;;5097748;28;20060;-22
2023/04/27 01:14:12;;;;;;;11.07;6.67;;;0.80;99.90;;;;;;5096867;28;20044;-23
2023/04/27 01:16:38;;;;;;;12.47;7.17;;;0.70;99.90;;;;;;5097359;28;20048;-23
2023/04/27 01:19:04;;;;;;;11.73;7.20;;;0.70;99.90;;;;;;5096791;28;20095;-23
2023/04/27 01:21:30;;;;;;;14.87;9.13;;;0.60;99.90;;;;;;5096123;28;20067;-22
2023/04/27 01:23:55;;;;;;;15.97;8.00;;;0.60;99.90;;;;;;5096778;28;20375;-22
2023/04/27 01:26:21;;;;;;;13.17;7.53;;;0.60;99.90;;;;;;5096657;28;20054;-23
2023/04/27 01:28:47;;;;;;;13.47;8.00;;;0.50;99.90;;;;;;5097213;28;20049;-22
2023/04/27 01:31:14;;;;;;;14.37;8.00;;;0.40;99.90;;;;;;5096530;28;20047;-23
2023/04/27 01:33:40;;;;;;;15.47;8.17;;;0.40;99.90;;;;;;5095563;28;20150;-22
2023/04/27 01:36:07;;;;;;;15.83;8.37;;;0.20;99.90;;;;;;5096489;28;20089;-23
2023/04/27 01:38:33;;;;;;;11.97;8.37;;;0.20;99.90;;;;;;5096475;28;20102;-23
2023/04/27 01:41:00;;;;;;;17.63;8.87;;;0.10;99.90;;;;;;5096390;28;20123;-22
2023/04/27 01:43:30;;;;;;;16.10;8.50;;;0.10;99.90;;;;;;5096428;28;20052;-22
2023/04/27 01:46:08;;;;;;;18.67;8.30;;;0.10;99.90;;;;;;5096647;28;20047;-22
2023/04/27 01:48:34;;;;;;;15.30;9.37;;;0.10;99.90;;;;;;5095098;28;20051;-22
2023/04/27 01:51:00;;;;;;;18.57;9.60;;;0.10;99.90;;;;;;5094677;28;20525;-23
2023/04/27 01:53:26;;;;;;;14.47;8.83;;;0.10;99.90;;;;;;5096193;28;20048;-22
2023/04/27 01:55:52;;;;;;;15.30;8.67;;;0.20;99.90;;;;;;5094931;28;20466;-22
2023/04/27 01:58:18;;;;;;;15.20;8.90;;;0.10;99.90;;;;;;5096073;28;20048;-22
2023/04/27 02:00:44;;;;;;;15.67;10.10;;;0.10;99.90;;;;;;5096014;28;20041;-23
2023/04/27 02:03:09;;;;;;;22.90;10.37;;;0.10;99.90;;;;;;5096291;28;20122;-22
2023/04/27 02:05:35;;;;;;;18.33;9.90;;;0.10;99.90;;;;;;5095874;28;20040;-22
2023/04/27 02:08:01;;;;;;;19.03;9.60;;;0.00;99.90;;;;;;5096414;28;20048;-22
2023/04/27 02:10:27;;;;;;;18.57;10.23;;;0.10;99.90;;;;;;5095617;28;20398;-22
2023/04/27 02:12:52;;;;;;;21.90;10.13;;;0.10;99.90;;;;;;5096077;28;20093;-22
2023/04/27 02:15:18;;;;;;;17.27;9.90;;;0.10;99.90;;;;;;5095766;28;20444;-22
2023/04/27 02:17:44;;;;;;;22.33;10.43;;;0.10;99.90;;;;;;5095702;28;20051;-23
2023/04/27 02:20:11;;;;;;;17.40;9.97;;;0.10;99.90;;;;;;5095678;28;20071;-22
2023/04/27 02:22:43;;;;;;;22.23;10.20;;;0.00;99.90;;;;;;5095606;28;20044;-22
2023/04/27 02:25:12;;;;;;;16.97;9.63;;;0.00;99.90;;;;;;5095573;28;20083;-22
2023/04/27 02:27:42;;;;;;;18.27;10.70;;;0.00;99.90;;;;;;5095523;28;20128;-22
2023/04/27 02:30:10;;;;;;;20.83;10.23;;;-0.10;99.90;;;;;;5095357;28;20044;-23
2023/04/27 02:32:36;;;;;;;19.60;10.83;;;-0.10;99.90;;;;;;5095453;28;20044;-22
2023/04/27 02:35:03;;;;;;;20.93;11.13;;;-0.10;99.90;;;;;;5095612;28;20040;-22
2023/04/27 02:37:29;;;;;;;18.77;11.37;;;-0.10;99.90;;;;;;5094163;28;20557;-22
2023/04/27 02:39:55;;;;;;;19.60;10.30;;;0.40;99.90;;;;;;5095284;28;20114;-22
2023/04/27 02:42:21;;;;;;;20.73;10.80;;;-0.20;99.90;;;;;;5095221;28;20390;-22
2023/04/27 02:44:46;;;;;;;18.33;10.67;;;-0.20;99.90;;;;;;5095706;28;20087;-22
2023/04/27 02:47:12;;;;;;;20.93;11.33;;;-0.20;99.90;;;;;;5094988;28;20102;-22
2023/04/27 02:49:38;;;;;;;19.97;10.77;;;-0.20;99.90;;;;;;5094525;28;20368;-22
2023/04/27 02:52:05;;;;;;;19.97;11.23;;;-0.20;99.90;;;;;;5095619;28;20482;-22
2023/04/27 02:54:31;;;;;;;19.47;10.90;;;-0.20;99.90;;;;;;5094406;28;20036;-22
2023/04/27 02:56:57;;;;;;;19.63;10.17;;;-0.40;99.90;;;;;;5094898;28;20540;-23
2023/04/27 02:59:22;;;;;;;22.83;11.50;;;-0.50;99.90;;;;;;5094879;28;20123;-22
2023/04/27 03:01:48;;;;;;;20.37;11.87;;;-0.50;99.90;;;;;;5094786;28;20090;-22
2023/04/27 03:04:15;;;;;;;22.43;11.07;;;-0.50;99.90;;;;;;5094776;28;20078;-22
2023/04/27 03:06:40;;;;;;;20.53;11.30;;;-0.40;99.90;;;;;;5093574;28;20102;-23
2023/04/27 03:09:09;;;;;;;20.57;11.77;;;-0.50;99.90;;;;;;5093629;28;20490;-22
2023/04/27 03:11:35;;;;;;;21.83;12.43;;;-0.40;99.90;;;;;;5094646;28;20044;-22
2023/04/27 03:14:01;;;;;;;20.27;11.97;;;-0.50;99.90;;;;;;5094617;28;20043;-22
2023/04/27 03:16:27;;;;;;;25.50;12.50;;;-0.50;99.90;;;;;;5094536;28;20048;-22
2023/04/27 03:18:53;;;;;;;23.70;12.40;;;-0.50;99.90;;;;;;5094799;28;20036;-22
2023/04/27 03:21:19;;;;;;;25.47;12.20;;;-0.40;99.90;;;;;;5093342;28;20135;-22
2023/04/27 03:23:44;;;;;;;25.10;13.90;;;-0.10;99.90;;;;;;5094471;28;20105;-22
2023/04/27 03:26:12;;;;;;;26.23;12.77;;;-0.20;99.90;;;;;;5093231;28;20076;-22
2023/04/27 03:28:38;;;;;;;25.20;12.40;;;-0.20;99.90;;;;;;5094335;28;20051;-23
2023/04/27 03:31:10;;;;;;;20.93;12.47;;;-0.10;99.90;;;;;;5094265;28;20040;-22
2023/04/27 03:33:36;;;;;;;20.20;11.80;;;-0.10;99.90;;;;;;5094262;28;20055;-22
2023/04/27 03:36:03;;;;;;;21.13;11.90;;;-0.20;99.90;;;;;;5094266;28;20378;-22
2023/04/27 03:38:30;;;;;;;23.00;12.03;;;-0.20;99.90;;;;;;5094482;28;20059;-22
2023/04/27 03:40:56;;;;;;;23.67;12.33;;;-0.20;99.90;;;;;;5094162;28;20079;-23
2023/04/27 03:43:22;;;;;;;20.30;12.53;;;-0.20;99.90;;;;;;5093112;28;20052;-22
2023/04/27 03:45:48;;;;;;;25.00;12.30;;;-0.30;99.90;;;;;;5094012;28;20047;-22
2023/04/27 03:48:15;;;;;;;28.30;12.50;;;-0.30;99.90;;;;;;5094896;28;20040;-22
2023/04/27 03:50:41;;;;;;;27.87;13.77;;;-0.40;99.90;;;;;;5092806;28;20044;-22
2023/04/27 03:53:07;;;;;;;25.10;12.80;;;-0.40;99.90;;;;;;5093967;28;20052;-22
2023/04/27 03:55:33;;;;;;;26.30;12.80;;;-0.40;99.90;;;;;;5093929;28;20058;-22
2023/04/27 03:57:59;;;;;;;26.37;13.27;;;-0.40;99.90;;;;;;5094478;28;20044;-22
2023/04/27 04:00:25;;;;;;;20.70;11.47;;;-0.40;99.90;;;;;;5093891;28;20048;-23
2023/04/27 04:02:51;;;;;;;25.97;12.90;;;-0.40;99.90;;;;;;5093945;28;20091;-22
2023/04/27 04:05:17;;;;;;;22.10;12.17;;;-0.40;99.90;;;;;;5092739;28;20442;-22
2023/04/27 04:07:43;;;;;;;29.37;12.13;;;-0.40;99.90;;;;;;5093472;28;20394;-22
2023/04/27 04:10:09;;;;;;;21.87;12.80;;;-0.30;99.90;;;;;;5092427;28;20070;-22
2023/04/27 04:12:35;;;;;;;21.80;11.87;;;-0.30;99.90;;;;;;5093745;28;20379;-22
2023/04/27 04:15:04;;;;;;;26.43;12.40;;;-0.20;99.90;;;;;;5094021;28;20063;-22
2023/04/27 04:17:30;;;;;;;23.53;12.03;;;-0.20;99.90;;;;;;5093749;28;20048;-22
2023/04/27 04:19:56;;;;;;;24.20;11.63;;;-0.20;99.90;;;;;;5094223;28;20380;-22
2023/04/27 04:22:21;;;;;;;20.27;11.53;;;-0.30;99.90;;;;;;5093646;28;20127;-23
2023/04/27 04:24:47;;;;;;;19.27;11.23;;;-0.30;99.90;;;;;;5093626;28;20044;-22
2023/04/27 04:27:13;;;;;;;20.70;11.80;;;-0.40;99.90;;;;;;5093503;28;20043;-22
2023/04/27 04:29:39;;;;;;;17.60;10.60;;;-0.40;99.90;;;;;;5076543;28;20070;-22
2023/04/27 04:32:06;;;;;;;18.67;11.03;;;-0.40;99.90;;;;;;5093206;28;20052;-22
2023/04/27 04:34:32;;;;;;;20.93;11.50;;;-0.50;99.90;;;;;;5092567;28;20497;-22
2023/04/27 04:36:58;;;;;;;19.33;11.97;;;-0.50;99.90;;;;;;5092345;28;20440;-22
2023/04/27 04:39:24;;;;;;;18.97;11.73;;;-0.50;99.90;;;;;;5094051;28;20047;-22
2023/04/27 04:41:49;;;;;;;23.70;11.30;;;-0.50;99.90;;;;;;5092277;28;20051;-22
2023/04/27 04:44:15;;;;;;;21.43;11.77;;;-0.40;99.90;;;;;;5093470;28;20044;-22
2023/04/27 04:46:41;;;;;;;21.40;12.07;;;-0.40;99.90;;;;;;5093319;28;20048;-22
2023/04/27 04:49:07;;;;;;;22.97;11.70;;;-0.40;99.90;;;;;;5093331;28;20044;-22
2023/04/27 04:51:33;;;;;;;24.37;11.07;;;-0.30;99.90;;;;;;5093380;28;20040;-22
2023/04/27 04:54:00;;;;;;;16.97;11.23;;;-0.20;99.90;;;;;;5093353;28;20520;-22
2023/04/27 04:56:25;;;;;;;20.23;10.83;;;-0.20;99.90;;;;;;5093357;28;20056;-22
2023/04/27 04:58:51;;;;;;;22.70;12.03;;;-0.10;99.90;;;;;;5092133;28;20546;-22
2023/04/27 05:01:17;;;;;;;26.63;11.93;;;0.00;99.90;;;;;;5093555;28;20075;-22
2023/04/27 05:03:43;;;;;;;25.10;11.07;;;0.20;99.90;;;;;;5094074;28;20382;-22
2023/04/27 05:06:08;;;;;;;24.73;11.33;;;0.30;99.90;;;;;;5093260;28;20048;-22
2023/04/27 05:08:34;;;;;;;25.10;10.87;;;0.50;99.90;;;;;;5093124;28;20397;-22
2023/04/27 05:11:00;;;;;;;19.00;11.53;;;0.60;99.90;;;;;;5094369;28;20478;-22
2023/04/27 05:13:26;;;;;;;19.70;11.00;;;0.70;99.90;;;;;;5092317;28;20232;-22
2023/04/27 05:15:52;;;;;;;15.17;9.73;;;0.90;99.90;;;;;;5093025;28;20051;-22
2023/04/27 05:18:18;;;;;;;17.77;10.93;;;0.90;99.90;;;;;;5095435;28;20136;-22
2023/04/27 05:20:44;;;;;;;20.97;10.53;;;1.00;99.90;;;;;;5095615;28;20085;-22
2023/04/27 05:23:10;;;;;;;16.70;9.90;;;1.10;99.90;;;;;;5096757;28;20051;-23
2023/04/27 05:25:40;;;;;;;18.83;10.30;;;1.20;99.90;;;;;;5096750;28;20040;-22
2023/04/27 05:28:07;;;;;;;22.73;10.60;;;1.30;99.90;;;;;;5096957;28;20066;-22
2023/04/27 05:30:33;;;;;;;17.60;10.10;;;1.40;99.90;;;;;;5096568;28;20079;-22
2023/04/27 05:32:59;;;;;;;16.57;10.80;;;1.50;99.90;;;;;;5095086;28;20445;-22
2023/04/27 05:35:25;;;;;;;17.33;9.63;;;1.70;99.90;;;;;;5095264;28;20040;-22
2023/04/27 05:37:51;;;;;;;17.43;9.50;;;2.00;99.90;;;;;;5096519;28;20104;-22
2023/04/27 05:40:17;;;;;;;27.63;10.60;;;2.20;99.90;;;;;;5096418;28;20364;-22
2023/04/27 05:42:45;;;;;;;18.85;9.70;;;2.50;99.90;;;;;;5095270;28;20044;-23
2023/04/27 05:45:11;;;;;;;14.67;8.93;;;2.60;99.90;;;;;;5096264;28;20054;-23
2023/04/27 05:47:37;;;;;;;16.13;9.98;;;2.70;99.90;;;;;;5096255;28;20398;-22
2023/04/27 05:50:03;;;;;;;13.43;7.80;;;2.70;99.90;;;;;;5096181;28;20040;-22
2023/04/27 05:52:29;;;;;;;15.10;8.20;;;2.70;99.90;;;;;;5096177;28;20141;-23
2023/04/27 05:54:57;;;;;;;14.52;7.40;;;2.60;99.90;;;;;;5096443;28;20102;-22
2023/04/27 05:57:23;;;;;;;11.13;7.63;;;2.70;99.90;;;;;;5096933;28;20417;-22
2023/04/27 05:59:49;;;;;;;10.27;7.70;;;2.50;99.90;;;;;;5096624;28;20040;-22
2023/04/27 06:02:15;;;;;;;13.47;6.77;;;2.50;99.90;;;;;;5096039;28;20131;-22
2023/04/27 06:04:41;;;;;;;13.47;7.77;;;2.60;99.90;;;;;;5079006;28;20056;-22
2023/04/27 06:07:10;;;;;;;11.93;6.80;;;2.70;99.90;;;;;;5096517;28;20523;-22
2023/04/27 06:09:37;;;;;;;9.50;6.93;;;2.80;99.90;;;;;;5095517;28;20081;-22
2023/04/27 06:12:03;;;;;;;11.73;6.22;;;3.00;99.90;;;;;;5094647;28;20044;-22
2023/04/27 06:14:33;;;;;;;9.13;6.37;;;3.10;99.90;;;;;;5094741;28;20083;-23
2023/04/27 06:16:59;;;;;;;10.68;5.82;;;3.30;99.90;;;;;;5094350;28;20044;-23
2023/04/27 06:19:25;;;;;;;14.30;6.10;;;3.50;99.90;;;;;;5095617;28;20036;-23
2023/04/27 06:21:52;;;;;;;10.95;5.63;;;3.70;99.90;;;;;;5095541;28;20044;-22
2023/04/27 06:24:18;;;;;;;9.70;5.72;;;3.90;99.90;;;;;;5094543;28;20131;-23
2023/04/27 06:26:44;;;;;;;10.90;5.87;;;4.20;99.90;;;;;;5095373;28;20127;-23
2023/04/27 06:29:10;;;;;;;13.43;5.38;;;4.50;99.90;;;;;;5095236;28;20040;-22
2023/04/27 06:31:36;;;;;;;11.95;5.30;;;4.80;98.10;;;;;;5077384;28;20044;-23
2023/04/27 06:34:03;;;;;;;10.90;4.80;;;5.00;1.00;;;;;;5093976;28;20075;-23
2023/04/27 06:36:30;;;;;;;11.85;5.45;;;5.20;1.00;;;;;;5095466;28;20116;-23
2023/04/27 06:38:56;;;;;;;12.27;5.15;;;5.30;1.00;;;;;;5095938;28;20052;-23
2023/04/27 06:41:23;;;;;;;7.28;4.90;;;5.30;99.90;;;;;;5095652;28;20055;-23
2023/04/27 06:43:49;;;;;;;9.27;4.82;;;5.40;99.90;;;;;;5095059;28;20048;-23
2023/04/27 06:46:15;;;;;;;9.43;5.40;;;5.50;99.90;;;;;;5094908;28;20048;-23
2023/04/27 06:48:41;;;;;;;13.13;5.22;;;5.70;1.00;;;;;;5094972;28;20512;-23
2023/04/27 06:51:07;;;;;;;7.43;5.03;;;5.90;1.00;;;;;;5095460;28;20453;-23
2023/04/27 06:53:33;;;;;;;7.95;3.97;;;6.20;1.00;;;;;;5095004;28;20080;-23
2023/04/27 06:55:59;;;;;;;6.50;3.90;;;6.40;99.90;;;;;;5093717;28;20090;-23
2023/04/27 06:58:25;;;;;;;7.10;4.10;;;6.70;99.90;;;;;;5077052;28;20093;-23
2023/04/27 07:00:51;;;;;;;6.78;3.53;;;6.80;1.00;;;;;;5093905;28;20055;-23
2023/04/27 07:03:17;;;;;;;5.93;3.45;;;7.00;1.00;;;;;;5093604;28;20040;-23
2023/04/27 07:05:43;;;;;;;5.25;3.30;;;7.00;1.00;;;;;;5095396;28;20039;-23
2023/04/27 07:08:09;;;;;;;6.72;2.97;;;6.90;99.90;;;;;;5094713;28;20466;-23
2023/04/27 07:10:34;;;;;;;13.65;3.95;;;6.90;99.90;;;;;;5094307;28;20048;-23
2023/04/27 07:13:00;;;;;;;7.43;3.35;;;6.90;99.90;;;;;;5094179;28;20090;-23
2023/04/27 07:15:26;;;;;;;5.63;3.72;;;7.00;82.50;;;;;;5095390;28;20131;-23
2023/04/27 07:17:54;;;;;;;6.63;3.03;;;7.10;99.90;;;;;;5094555;28;20044;-23
2023/04/27 07:20:20;;;;;;;7.00;2.88;;;7.30;1.00;;;;;;5094765;28;20398;-23
2023/04/27 07:22:46;;;;;;;10.65;4.45;;;7.30;99.90;;;;;;5060001;28;20047;-23
2023/04/27 07:25:12;;;;;;;6.97;2.53;;;7.50;1.00;;;;;;5093462;28;20055;-23
2023/04/27 07:27:38;;;;;;;3.55;2.35;;;7.60;1.00;;;;;;5076531;28;20090;-23
2023/04/27 07:30:07;;;;;;;6.53;2.58;;;7.50;1.00;;;;;;5094338;28;20044;-23
2023/04/27 07:32:33;;;;;;;6.03;2.50;;;7.40;1.00;;;;;;5093680;28;20188;-23
2023/04/27 07:34:59;;;;;;;4.32;2.20;;;7.40;99.90;;;;;;5094249;28;20076;-23
2023/04/27 07:37:25;;;;;;;7.65;2.50;;;7.50;1.00;;;;;;5093808;28;20055;-23
2023/04/27 07:39:52;;;;;;;4.50;2.20;;;7.60;1.00;;;;;;5093108;28;20431;-23
2023/04/27 07:42:18;;;;;;;5.75;1.90;;;7.70;1.00;;;;;;5094222;28;20044;-23
2023/04/27 07:44:44;;;;;;;3.83;1.85;;;7.70;99.90;;;;;;5094131;28;20085;-23
2023/04/27 07:47:10;;;;;;;6.07;2.13;;;7.90;1.00;;;;;;5094003;28;20044;-23
2023/04/27 07:49:37;;;;;;;4.15;1.95;;;8.00;1.00;;;;;;5093903;28;20040;-23
2023/04/27 07:52:03;;;;;;;4.88;1.60;;;8.00;99.90;;;;;;5093582;28;20097;-23
2023/04/27 07:54:29;;;;;;;4.18;1.83;;;8.00;1.00;;;;;;5093968;28;20044;-23
2023/04/27 07:56:56;;;;;;;3.83;1.52;;;8.10;99.90;;;;;;5093924;28;20097;-23
2023/04/27 07:59:21;;;;;;;4.28;1.42;;;8.10;99.90;;;;;;5094172;28;20048;-23
2023/04/27 08:01:47;;;;;;;3.35;1.70;;;8.20;99.90;;;;;;5093557;28;20406;-23
2023/04/27 08:04:14;;;;;;;3.03;1.40;;;8.20;99.90;;;;;;5093541;28;20055;-25
2023/04/27 08:06:40;;;;;;;5.50;1.40;;;8.20;99.90;;;;;;5094285;28;20051;-23
2023/04/27 08:09:06;;;;;;;3.40;1.60;;;8.30;1.00;;;;;;5093847;28;20040;-23
2023/04/27 08:11:32;;;;;;;2.38;1.10;;;8.50;99.90;;;;;;5093872;28;20056;-23
2023/04/27 08:13:58;;;;;;;1.92;1.20;;;8.40;99.90;;;;;;5093716;28;20040;-23
2023/04/27 08:16:23;;;;;;;3.90;1.40;;;8.60;1.00;;;;;;5094005;28;20071;-24
2023/04/27 08:18:49;;;;;;;5.60;1.73;;;8.70;1.00;;;;;;5092485;28;20040;-24
2023/04/27 08:21:15;;;;;;;2.35;1.15;;;8.70;37.80;;;;;;5094355;28;20051;-23
2023/04/27 08:23:41;;;;;;;3.70;1.60;;;8.80;99.90;;;;;;5092367;28;20055;-24
2023/04/27 08:26:07;;;;;;;5.70;1.70;;;8.90;99.90;;;;;;5092641;28;20066;-23
2023/04/27 08:28:33;;;;;;;4.05;1.52;;;9.00;1.00;;;;;;5093232;28;20474;-23
2023/04/27 08:30:58;;;;;;;5.20;1.40;;;9.10;99.90;;;;;;5092299;28;20062;-24
2023/04/27 08:33:24;;;;;;;2.35;1.05;;;9.20;1.00;;;;;;5093555;28;20044;-24
2023/04/27 08:35:53;;;;;;;5.53;1.20;;;9.30;99.90;;;;;;5093558;28;20047;-24
2023/04/27 08:38:19;;;;;;;4.95;1.63;;;9.30;99.90;;;;;;5093813;28;20053;-24
2023/04/27 08:40:45;;;;;;;4.68;1.40;;;9.40;99.90;;;;;;5091962;28;20398;-24
2023/04/27 08:43:10;;;;;;;6.13;1.70;;;9.30;99.90;;;;;;5093399;28;20108;-24
2023/04/27 08:45:36;;;;;;;2.42;1.55;;;9.60;99.90;;;;;;5093186;28;20048;-24
2023/04/27 08:48:02;;;;;;;5.95;2.17;;;9.90;99.90;;;;;;5092103;28;20051;-24
2023/04/27 08:50:28;;;;;;;3.47;1.23;;;10.00;99.90;;;;;;5093742;28;20044;-24
2023/04/27 08:52:54;;;;;;;4.35;1.23;;;10.10;1.00;;;;;;5095655;28;20386;-24
2023/04/27 08:55:20;;;;;;;3.83;1.55;;;10.40;44.20;;;;;;5097747;28;20040;-24
2023/04/27 08:57:56;;;;;;;4.00;1.40;;;10.40;1.00;;;;;;5097188;28;20127;-24
2023/04/27 09:00:24;;;;;;;5.90;1.30;;;10.40;1.00;;;;;;5097341;28;20051;-24
2023/04/27 09:02:50;;;;;;;2.78;1.33;;;10.40;1.00;;;;;;5097176;28;20048;-24
2023/04/27 09:05:21;;;;;;;4.05;2.08;;;10.60;1.00;;;;;;5097167;28;20485;-24
2023/04/27 09:08:04;;;;;;;5.38;2.00;;;10.70;99.90;;;;;;5097653;28;20097;-24
2023/04/27 09:10:30;;;;;;;3.75;2.03;;;11.30;1.00;;;;;;5095729;28;20052;-26
2023/04/27 09:12:58;;;;;;;4.47;1.50;;;12.20;1.00;;;;;;5097831;28;20055;-25
2023/04/27 09:15:24;;;;;;;8.40;1.52;;;12.70;99.90;;;;;;5096992;28;20044;-26
2023/04/27 09:17:55;;;;;;;4.57;1.67;;;12.50;99.90;;;;;;5079528;28;20074;-26
2023/04/27 09:20:21;;;;;;;7.00;1.50;;;12.40;99.90;;;;;;5096902;28;20040;-26
2023/04/27 09:22:51;;;;;;;3.17;1.75;;;12.50;99.90;;;;;;5096866;28;20055;-26
2023/04/27 09:25:31;;;;;;;7.93;2.42;;;12.40;99.90;;;;;;5096443;28;20051;-26
2023/04/27 09:27:59;;;;;;;3.17;1.88;;;12.20;99.90;;;;;;5096695;28;20040;-25
2023/04/27 09:30:28;;;;;;;4.75;2.17;;;11.90;99.90;;;;;;5078536;28;20044;-26
2023/04/27 09:32:56;;;;;;;5.95;2.60;;;12.10;99.90;;;;;;5096485;28;20079;-27
2023/04/27 09:35:30;;;;;;;5.80;2.00;;;12.00;99.90;;;;;;5096626;28;20169;-27
2023/04/27 09:37:56;;;;;;;4.55;2.22;;;12.10;99.90;;;;;;5096848;28;20397;-26
2023/04/27 09:40:28;;;;;;;7.93;2.20;;;12.30;99.90;;;;;;5095338;28;20036;-26
2023/04/27 09:42:55;;;;;;;5.82;1.92;;;12.30;99.90;;;;;;5096475;28;20044;-26
2023/04/27 09:45:23;;;;;;;5.45;1.67;;;12.20;99.90;;;;;;5096240;28;20040;-26
2023/04/27 09:47:48;;;;;;;4.30;1.98;;;12.00;99.90;;;;;;5096329;28;20047;-26
2023/04/27 09:50:14;;;;;;;4.25;2.20;;;11.90;99.90;;;;;;5096811;28;20373;-26
2023/04/27 09:52:41;;;;;;;3.33;1.75;;;11.60;99.90;;;;;;5096225;28;20040;-26
2023/04/27 09:55:15;;;;;;;5.00;2.05;;;11.40;99.90;;;;;;5078474;28;20079;-26
2023/04/27 09:58:02;;;;;;;4.50;2.40;;;11.60;99.90;;;;;;5096183;28;20040;-26
2023/04/27 10:00:35;;;;;;;5.03;2.70;;;11.50;99.90;;;;;;5096938;28;20066;-26
2023/04/27 10:03:27;;;;;;;7.47;2.72;;;11.20;99.90;;;;;;5095814;28;20086;-27
2023/04/27 10:06:31;;;;;;;5.65;2.50;;;11.20;99.90;;;;;;5074814;28;20143;-27
2023/04/27 10:08:58;;;;;;;7.25;2.15;;;11.30;99.90;;;;;;5094450;28;20056;-26
2023/04/27 10:11:38;;;;;;;6.72;2.30;;;11.50;99.90;;;;;;5095170;28;20052;-26
2023/04/27 10:14:09;;;;;;;5.13;2.50;;;11.80;99.90;;;;;;5095835;28;20482;-26
2023/04/27 10:16:50;;;;;;;7.72;2.17;;;11.70;99.90;;;;;;5095055;28;20048;-26
2023/04/27 10:19:16;;;;;;;6.40;2.80;;;11.50;99.90;;;;;;5095750;28;20474;-26
2023/04/27 10:22:01;;;;;;;6.13;2.28;;;11.60;99.90;;;;;;5095643;28;20567;-26
2023/04/27 10:24:38;;;;;;;4.72;2.33;;;11.80;99.90;;;;;;5062423;28;20048;-26
2023/04/27 10:27:06;;;;;;;7.00;3.45;;;12.00;99.90;;;;;;5095604;28;20092;-26
2023/04/27 10:29:43;;;;;;;6.43;3.50;;;12.20;99.90;;;;;;5095445;28;20052;-27
2023/04/27 10:32:17;;;;;;;7.07;3.08;;;12.50;99.90;;;;;;5096343;28;20086;-26
2023/04/27 10:34:46;;;;;;;5.38;3.17;;;12.60;99.90;;;;;;5094623;28;20052;-26
2023/04/27 10:37:13;;;;;;;6.38;3.40;;;13.40;99.90;;;;;;5095346;28;20044;-26
2023/04/27 10:39:41;;;;;;;6.13;3.17;;;14.60;99.90;;;;;;5096118;28;20047;-24
2023/04/27 10:42:07;;;;;;;4.13;3.20;;;14.60;99.90;;;;;;5094365;28;20048;-23
2023/04/27 10:44:35;;;;;;;5.90;2.85;;;14.70;99.90;;;;;;5095200;28;20044;-24
2023/04/27 10:47:23;;;;;;;6.70;2.80;;;15.30;99.90;;;;;;5094786;28;20674;-24
2023/04/27 10:49:53;;;;;;;5.72;3.03;;;15.10;99.90;;;;;;5095362;28;20381;-24
2023/04/27 10:52:18;;;;;;;5.78;3.22;;;15.00;99.90;;;;;;5095582;28;20363;-24
2023/04/27 10:54:45;;;;;;;4.38;3.25;;;14.40;99.90;;;;;;5095063;28;20050;-24
2023/04/27 10:57:12;;;;;;;8.07;3.63;;;13.60;99.90;;;;;;5095046;28;20044;-23
2023/04/27 10:59:54;;;;;;;6.15;3.53;;;12.90;99.90;;;;;;5094924;28;20054;-24
2023/04/27 11:02:27;;;;;;;10.70;3.90;;;12.50;99.90;;;;;;5094609;28;20386;-24
2023/04/27 11:04:55;;;;;;;8.88;4.28;;;12.40;99.90;;;;;;5095700;28;20087;-23
2023/04/27 11:07:26;;;;;;;9.05;3.70;;;12.40;99.90;;;;;;5093803;28;20055;-23
2023/04/27 11:09:52;;;;;;;6.25;3.35;;;12.20;99.90;;;;;;5094292;28;20099;-24
2023/04/27 11:12:17;;;;;;;6.70;2.88;;;12.00;99.90;;;;;;5095609;28;20445;-24
2023/04/27 11:14:43;;;;;;;5.75;3.95;;;11.80;99.90;;;;;;5094239;28;20444;-24
2023/04/27 11:17:09;;;;;;;5.90;3.75;;;11.60;99.90;;;;;;5094638;28;20055;-23
2023/04/27 11:19:47;;;;;;;7.70;3.53;;;11.50;99.90;;;;;;5095158;28;20044;-23
2023/04/27 11:22:17;;;;;;;8.88;3.90;;;11.40;1.00;;;;;;5094187;28;20395;-23
2023/04/27 11:24:48;;;;;;;7.90;4.10;;;11.30;99.90;;;;;;5094377;28;20051;-23
2023/04/27 11:27:14;;;;;;;6.38;3.95;;;11.20;99.90;;;;;;5093728;28;20047;-24
2023/04/27 11:29:41;;;;;;;5.25;3.20;;;11.10;99.90;;;;;;5094902;28;20040;-23
2023/04/27 11:32:07;;;;;;;7.90;3.85;;;10.80;1.00;;;;;;5093910;28;20454;-23
2023/04/27 11:34:36;;;;;;;8.60;4.97;;;10.70;1.00;;;;;;5094146;28;20131;-23
2023/04/27 11:37:04;;;;;;;8.68;4.25;;;10.60;40.50;;;;;;5094785;28;20414;-23
2023/04/27 11:39:34;;;;;;;7.50;3.60;;;10.50;99.90;;;;;;5093836;28;20440;-23
2023/04/27 11:42:23;;;;;;;7.55;3.63;;;10.40;99.90;;;;;;5092963;28;20044;-23
2023/04/27 11:44:53;;;;;;;5.00;3.03;;;10.30;99.90;;;;;;5094123;28;20048;-24
2023/04/27 11:47:20;;;;;;;9.23;3.78;;;10.30;99.90;;;;;;5094035;28;20048;-23
2023/04/27 11:49:50;;;;;;;5.30;2.90;;;10.10;99.90;;;;;;5092722;28;20509;-23
2023/04/27 11:52:16;;;;;;;8.43;3.83;;;10.00;99.90;;;;;;5093756;28;20493;-23
2023/04/27 11:54:55;;;;;;;5.95;3.63;;;10.00;99.90;;;;;;5093013;28;20054;-23
2023/04/27 11:57:35;;;;;;;5.03;3.15;;;9.90;1.00;;;;;;5094532;28;20091;-23
2023/04/27 12:00:13;;;;;;;8.13;2.92;;;9.70;90.80;;;;;;5094497;28;20052;-23
2023/04/27 12:02:39;;;;;;;10.18;3.17;;;9.60;99.90;;;;;;5093900;28;20056;-24
2023/04/27 12:05:06;;;;;;;6.68;2.78;;;9.60;99.90;;;;;;5094125;28;20044;-24
2023/04/27 12:07:32;;;;;;;5.38;2.70;;;9.70;1.00;;;;;;5093751;28;20055;-23
2023/04/27 12:09:58;;;;;;;3.92;2.40;;;9.80;15.20;;;;;;5092128;28;20101;-22
2023/04/27 12:12:23;;;;;;;8.88;3.63;;;10.00;1.00;;;;;;5082975;28;20046;-23
2023/04/27 12:14:50;;;;;;;5.95;2.45;;;10.30;1.00;;;;;;5075827;28;20056;-23
2023/04/27 12:17:16;;;;;;;5.88;2.80;;;10.40;99.90;;;;;;5073108;28;20041;-23
2023/04/27 12:19:42;;;;;;;6.47;2.70;;;10.60;99.90;;;;;;5058865;28;20168;-23
2023/04/27 12:22:09;;;;;;;5.63;2.97;;;10.80;99.90;;;;;;5088252;28;20068;-23
2023/04/27 12:24:35;;;;;;;10.90;3.83;;;11.10;1.00;;;;;;5059207;28;20078;-23
2023/04/27 12:27:02;;;;;;;5.75;3.00;;;11.30;1.00;;;;;;5093191;28;20525;-23
2023/04/27 12:29:28;;;;;;;8.15;2.88;;;11.30;99.90;;;;;;5088294;28;20051;-24
2023/04/27 12:31:54;;;;;;;7.00;3.15;;;11.70;99.90;;;;;;5090822;28;20040;-23
2023/04/27 12:34:20;;;;;;;4.82;2.75;;;11.80;5.40;;;;;;5085098;28;20044;-24
2023/04/27 12:36:46;;;;;;;6.43;2.47;;;12.30;1.00;;;;;;5097649;28;20070;-24
2023/04/27 12:39:19;;;;;;;7.90;3.10;;;13.10;1.00;;;;;;5088152;28;20064;-23
2023/04/27 12:41:49;;;;;;;5.68;3.30;;;13.20;99.90;;;;;;5097601;28;20043;-24
2023/04/27 12:44:16;;;;;;;5.47;2.75;;;13.20;99.90;;;;;;5092873;28;20044;-24
2023/04/27 12:46:42;;;;;;;5.10;2.40;;;13.40;99.90;;;;;;5076910;28;20064;-23